sensor_id;sensor_type;location;lat;lon;timestamp;temperature;humidity
49465;DHT22;35358;49.342;8.802;2022-07-29T00:00:30;21.10;99.90
49465;DHT22;35358;49.342;8.802;2022-07-29T00:02:58;21.10;99.90
49465;DHT22;35358;49.342;8.802;2022-07-29T00:05:26;21.00;99.90
49465;DHT22;35358;49.342;8.802;2022-07-29T00:07:51;21.00;99.90
49465;DHT22;35358;49.342;8.802;2022-07-29T00:10:19;20.90;99.90
49465;DHT22;35358;49.342;8.802;2022-07-29T00:12:45;20.90;99.90
49465;DHT22;35358;49.342;8.802;2022-07-29T00:15:11;20.90;99.90
49465;DHT22;35358;49.342;8.802;2022-07-29T00:17:38;20.80;99.90
49465;DHT22;35358;49.342;8.802;2022-07-29T00:20:04;20.80;99.90
49465;DHT22;35358;49.342;8.802;2022-07-29T00:22:33;20.80;99.90
49465;DHT22;35358;49.342;8.802;2022-07-29T00:25:01;20.70;99.90
49465;DHT22;35358;49.342;8.802;2022-07-29T00:27:29;20.70;99.90
49465;DHT22;35358;49.342;8.802;2022-07-29T00:29:55;20.60;99.90
49465;DHT22;35358;49.342;8.802;2022-07-29T00:32:20;20.70;99.90
49465;DHT22;35358;49.342;8.802;2022-07-29T00:34:46;20.60;99.90
49465;DHT22;35358;49.342;8.802;2022-07-29T00:37:30;20.60;99.90
49465;DHT22;35358;49.342;8.802;2022-07-29T00:39:56;20.60;99.90
49465;DHT22;35358;49.342;8.802;2022-07-29T00:42:21;20.60;99.90
49465;DHT22;35358;49.342;8.802;2022-07-29T00:44:47;20.60;99.90
49465;DHT22;35358;49.342;8.802;2022-07-29T00:47:13;20.60;99.90
49465;DHT22;35358;49.342;8.802;2022-07-29T00:49:42;20.50;99.90
49465;DHT22;35358;49.342;8.802;2022-07-29T00:52:09;20.30;99.90
49465;DHT22;35358;49.342;8.802;2022-07-29T00:54:38;20.20;99.90
49465;DHT22;35358;49.342;8.802;2022-07-29T00:57:07;20.10;99.90
49465;DHT22;35358;49.342;8.802;2022-07-29T00:59:33;19.90;99.90
49465;DHT22;35358;49.342;8.802;2022-07-29T01:01:59;19.80;99.90
49465;DHT22;35358;49.342;8.802;2022-07-29T01:04:25;19.80;99.90
49465;DHT22;35358;49.342;8.802;2022-07-29T01:06:51;19.80;99.90
49465;DHT22;35358;49.342;8.802;2022-07-29T01:09:20;19.90;99.90
49465;DHT22;35358;49.342;8.802;2022-07-29T01:11:51;19.90;99.90
49465;DHT22;35358;49.342;8.802;2022-07-29T01:14:21;19.90;99.90
49465;DHT22;35358;49.342;8.802;2022-07-29T01:16:58;20.00;99.90
49465;DHT22;35358;49.342;8.802;2022-07-29T01:21:57;20.00;99.90
49465;DHT22;35358;49.342;8.802;2022-07-29T01:29:47;20.00;99.90
49465;DHT22;35358;49.342;8.802;2022-07-29T01:32:20;20.00;99.90
49465;DHT22;35358;49.342;8.802;2022-07-29T01:34:50;20.00;99.90
49465;DHT22;35358;49.342;8.802;2022-07-29T01:37:32;20.00;99.90
49465;DHT22;35358;49.342;8.802;2022-07-29T01:40:02;20.00;99.90
49465;DHT22;35358;49.342;8.802;2022-07-29T01:42:49;20.00;99.90
49465;DHT22;35358;49.342;8.802;2022-07-29T01:45:18;20.00;99.90
49465;DHT22;35358;49.342;8.802;2022-07-29T01:48:06;19.90;99.90
49465;DHT22;35358;49.342;8.802;2022-07-29T01:50:40;19.90;99.90
49465;DHT22;35358;49.342;8.802;2022-07-29T01:53:11;19.90;99.90
49465;DHT22;35358;49.342;8.802;2022-07-29T01:55:43;19.80;99.90
49465;DHT22;35358;49.342;8.802;2022-07-29T01:58:11;19.70;99.90
49465;DHT22;35358;49.342;8.802;2022-07-29T02:00:40;19.60;99.90
49465;DHT22;35358;49.342;8.802;2022-07-29T02:03:11;19.70;99.90
49465;DHT22;35358;49.342;8.802;2022-07-29T02:05:42;19.70;99.90
49465;DHT22;35358;49.342;8.802;2022-07-29T02:08:09;19.50;99.90
49465;DHT22;35358;49.342;8.802;2022-07-29T02:10:37;19.40;99.90
49465;DHT22;35358;49.342;8.802;2022-07-29T02:13:05;19.30;99.90
49465;DHT22;35358;49.342;8.802;2022-07-29T02:15:33;19.30;99.90
49465;DHT22;35358;49.342;8.802;2022-07-29T02:18:08;19.20;99.90
49465;DHT22;35358;49.342;8.802;2022-07-29T02:20:35;19.20;99.90
49465;DHT22;35358;49.342;8.802;2022-07-29T02:23:04;19.20;99.90
49465;DHT22;35358;49.342;8.802;2022-07-29T02:25:31;19.20;99.90
49465;DHT22;35358;49.342;8.802;2022-07-29T02:28:01;19.10;99.90
49465;DHT22;35358;49.342;8.802;2022-07-29T02:30:29;19.10;99.90
49465;DHT22;35358;49.342;8.802;2022-07-29T02:32:56;19.20;99.90
49465;DHT22;35358;49.342;8.802;2022-07-29T02:35:23;19.20;99.90
49465;DHT22;35358;49.342;8.802;2022-07-29T02:37:50;19.10;99.90
49465;DHT22;35358;49.342;8.802;2022-07-29T02:40:38;19.10;99.90
49465;DHT22;35358;49.342;8.802;2022-07-29T02:43:06;19.10;99.90
49465;DHT22;35358;49.342;8.802;2022-07-29T02:45:32;19.10;99.90
49465;DHT22;35358;49.342;8.802;2022-07-29T02:48:06;19.00;99.90
49465;DHT22;35358;49.342;8.802;2022-07-29T02:50:38;18.90;99.90
49465;DHT22;35358;49.342;8.802;2022-07-29T02:53:17;18.80;99.90
49465;DHT22;35358;49.342;8.802;2022-07-29T02:55:51;18.90;99.90
49465;DHT22;35358;49.342;8.802;2022-07-29T02:58:41;18.90;99.90
49465;DHT22;35358;49.342;8.802;2022-07-29T03:01:21;18.90;99.90
49465;DHT22;35358;49.342;8.802;2022-07-29T03:03:48;18.80;99.90
49465;DHT22;35358;49.342;8.802;2022-07-29T03:06:15;18.80;99.90
49465;DHT22;35358;49.342;8.802;2022-07-29T03:08:42;18.60;99.90
49465;DHT22;35358;49.342;8.802;2022-07-29T03:11:12;18.50;99.90
49465;DHT22;35358;49.342;8.802;2022-07-29T03:13:38;18.50;99.90
49465;DHT22;35358;49.342;8.802;2022-07-29T03:16:07;18.40;99.90
49465;DHT22;35358;49.342;8.802;2022-07-29T03:18:34;18.40;99.90
49465;DHT22;35358;49.342;8.802;2022-07-29T03:21:00;18.40;99.90
49465;DHT22;35358;49.342;8.802;2022-07-29T03:23:26;18.40;99.90
49465;DHT22;35358;49.342;8.802;2022-07-29T03:25:56;18.20;99.90
49465;DHT22;35358;49.342;8.802;2022-07-29T03:28:26;18.20;99.90
49465;DHT22;35358;49.342;8.802;2022-07-29T03:30:56;18.20;99.90
49465;DHT22;35358;49.342;8.802;2022-07-29T03:33:22;18.30;99.90
49465;DHT22;35358;49.342;8.802;2022-07-29T03:35:47;18.40;99.90
49465;DHT22;35358;49.342;8.802;2022-07-29T03:38:15;18.40;99.90
49465;DHT22;35358;49.342;8.802;2022-07-29T03:40:51;18.40;99.90
49465;DHT22;35358;49.342;8.802;2022-07-29T03:43:20;18.40;99.90
49465;DHT22;35358;49.342;8.802;2022-07-29T03:45:51;18.40;99.90
49465;DHT22;35358;49.342;8.802;2022-07-29T03:48:23;18.40;99.90
49465;DHT22;35358;49.342;8.802;2022-07-29T03:50:51;18.30;99.90
49465;DHT22;35358;49.342;8.802;2022-07-29T03:53:17;18.40;99.90
49465;DHT22;35358;49.342;8.802;2022-07-29T03:55:50;18.50;99.90
49465;DHT22;35358;49.342;8.802;2022-07-29T03:58:18;18.60;99.90
49465;DHT22;35358;49.342;8.802;2022-07-29T04:00:44;18.60;99.90
49465;DHT22;35358;49.342;8.802;2022-07-29T04:03:14;18.70;99.90
49465;DHT22;35358;49.342;8.802;2022-07-29T04:05:40;18.70;99.90
49465;DHT22;35358;49.342;8.802;2022-07-29T04:08:10;18.70;99.90
49465;DHT22;35358;49.342;8.802;2022-07-29T04:10:35;18.60;99.90
49465;DHT22;35358;49.342;8.802;2022-07-29T04:13:04;18.50;99.90
49465;DHT22;35358;49.342;8.802;2022-07-29T04:15:29;18.50;99.90
49465;DHT22;35358;49.342;8.802;2022-07-29T04:17:55;18.50;99.90
49465;DHT22;35358;49.342;8.802;2022-07-29T04:20:21;18.40;99.90
49465;DHT22;35358;49.342;8.802;2022-07-29T04:22:46;18.40;99.90
49465;DHT22;35358;49.342;8.802;2022-07-29T04:25:16;18.40;99.90
49465;DHT22;35358;49.342;8.802;2022-07-29T04:27:42;18.40;99.90
49465;DHT22;35358;49.342;8.802;2022-07-29T04:30:25;18.30;99.90
49465;DHT22;35358;49.342;8.802;2022-07-29T04:32:51;18.20;99.90
49465;DHT22;35358;49.342;8.802;2022-07-29T04:35:22;18.20;99.90
49465;DHT22;35358;49.342;8.802;2022-07-29T04:37:52;18.20;99.90
49465;DHT22;35358;49.342;8.802;2022-07-29T04:40:18;18.20;99.90
49465;DHT22;35358;49.342;8.802;2022-07-29T04:42:46;18.20;99.90
49465;DHT22;35358;49.342;8.802;2022-07-29T04:45:15;18.10;99.90
49465;DHT22;35358;49.342;8.802;2022-07-29T04:47:40;18.00;99.90
49465;DHT22;35358;49.342;8.802;2022-07-29T04:50:08;18.10;99.90
49465;DHT22;35358;49.342;8.802;2022-07-29T04:52:36;18.20;99.90
49465;DHT22;35358;49.342;8.802;2022-07-29T04:55:05;18.30;99.90
49465;DHT22;35358;49.342;8.802;2022-07-29T04:57:35;18.30;99.90
49465;DHT22;35358;49.342;8.802;2022-07-29T05:00:05;18.20;99.90
49465;DHT22;35358;49.342;8.802;2022-07-29T05:02:33;18.20;99.90
49465;DHT22;35358;49.342;8.802;2022-07-29T05:04:58;18.20;99.90
49465;DHT22;35358;49.342;8.802;2022-07-29T05:07:24;18.30;99.90
49465;DHT22;35358;49.342;8.802;2022-07-29T05:09:52;18.30;99.90
49465;DHT22;35358;49.342;8.802;2022-07-29T05:12:23;18.40;99.90
49465;DHT22;35358;49.342;8.802;2022-07-29T05:14:50;18.40;99.90
49465;DHT22;35358;49.342;8.802;2022-07-29T05:17:16;18.50;99.90
49465;DHT22;35358;49.342;8.802;2022-07-29T05:19:42;18.50;99.90
49465;DHT22;35358;49.342;8.802;2022-07-29T05:22:07;18.70;99.90
49465;DHT22;35358;49.342;8.802;2022-07-29T05:24:35;18.70;99.90
49465;DHT22;35358;49.342;8.802;2022-07-29T05:27:01;18.70;99.90
49465;DHT22;35358;49.342;8.802;2022-07-29T05:29:29;18.60;99.90
49465;DHT22;35358;49.342;8.802;2022-07-29T05:31:55;18.70;99.90
49465;DHT22;35358;49.342;8.802;2022-07-29T05:34:20;18.70;99.90
49465;DHT22;35358;49.342;8.802;2022-07-29T05:36:48;18.80;99.90
49465;DHT22;35358;49.342;8.802;2022-07-29T05:39:15;18.90;99.90
49465;DHT22;35358;49.342;8.802;2022-07-29T05:41:40;19.00;99.90
49465;DHT22;35358;49.342;8.802;2022-07-29T05:44:06;19.00;99.90
49465;DHT22;35358;49.342;8.802;2022-07-29T05:46:32;19.10;99.90
49465;DHT22;35358;49.342;8.802;2022-07-29T05:48:57;19.20;99.90
49465;DHT22;35358;49.342;8.802;2022-07-29T05:51:26;19.20;99.90
49465;DHT22;35358;49.342;8.802;2022-07-29T05:53:51;19.30;99.90
49465;DHT22;35358;49.342;8.802;2022-07-29T05:56:19;19.30;99.90
49465;DHT22;35358;49.342;8.802;2022-07-29T05:58:45;19.40;99.90
49465;DHT22;35358;49.342;8.802;2022-07-29T06:01:13;19.60;99.90
49465;DHT22;35358;49.342;8.802;2022-07-29T06:03:38;19.60;99.90
49465;DHT22;35358;49.342;8.802;2022-07-29T06:06:06;19.80;99.90
49465;DHT22;35358;49.342;8.802;2022-07-29T06:08:33;19.80;99.90
49465;DHT22;35358;49.342;8.802;2022-07-29T06:11:02;20.00;99.90
49465;DHT22;35358;49.342;8.802;2022-07-29T06:13:34;19.90;99.90
49465;DHT22;35358;49.342;8.802;2022-07-29T06:15:59;19.90;99.90
49465;DHT22;35358;49.342;8.802;2022-07-29T06:18:25;20.00;99.90
49465;DHT22;35358;49.342;8.802;2022-07-29T06:20:53;20.00;99.90
49465;DHT22;35358;49.342;8.802;2022-07-29T06:23:19;19.90;99.90
49465;DHT22;35358;49.342;8.802;2022-07-29T06:25:45;20.00;99.90
49465;DHT22;35358;49.342;8.802;2022-07-29T06:28:11;20.10;99.90
49465;DHT22;35358;49.342;8.802;2022-07-29T06:30:39;20.10;99.90
49465;DHT22;35358;49.342;8.802;2022-07-29T06:33:05;20.20;99.90
49465;DHT22;35358;49.342;8.802;2022-07-29T06:35:33;20.40;99.90
49465;DHT22;35358;49.342;8.802;2022-07-29T06:38:02;20.40;99.90
49465;DHT22;35358;49.342;8.802;2022-07-29T06:40:28;20.50;99.90
49465;DHT22;35358;49.342;8.802;2022-07-29T06:43:12;20.50;99.90
49465;DHT22;35358;49.342;8.802;2022-07-29T06:45:38;20.60;99.90
49465;DHT22;35358;49.342;8.802;2022-07-29T06:48:06;20.80;99.90
49465;DHT22;35358;49.342;8.802;2022-07-29T06:50:31;20.80;99.90
49465;DHT22;35358;49.342;8.802;2022-07-29T06:52:57;21.00;99.90
49465;DHT22;35358;49.342;8.802;2022-07-29T06:55:25;21.00;99.90
49465;DHT22;35358;49.342;8.802;2022-07-29T06:57:51;21.00;99.90
49465;DHT22;35358;49.342;8.802;2022-07-29T07:00:16;21.10;99.90
49465;DHT22;35358;49.342;8.802;2022-07-29T07:02:44;21.20;99.90
49465;DHT22;35358;49.342;8.802;2022-07-29T07:05:10;21.30;99.90
49465;DHT22;35358;49.342;8.802;2022-07-29T07:07:38;21.50;99.90
49465;DHT22;35358;49.342;8.802;2022-07-29T07:10:06;21.60;99.90
49465;DHT22;35358;49.342;8.802;2022-07-29T07:12:32;21.70;99.90
49465;DHT22;35358;49.342;8.802;2022-07-29T07:14:57;21.80;99.90
49465;DHT22;35358;49.342;8.802;2022-07-29T07:17:25;21.90;99.90
49465;DHT22;35358;49.342;8.802;2022-07-29T07:19:53;21.90;99.90
49465;DHT22;35358;49.342;8.802;2022-07-29T07:22:19;21.90;99.90
49465;DHT22;35358;49.342;8.802;2022-07-29T07:24:45;21.90;99.90
49465;DHT22;35358;49.342;8.802;2022-07-29T07:27:10;21.90;99.90
49465;DHT22;35358;49.342;8.802;2022-07-29T07:29:36;22.00;99.90
49465;DHT22;35358;49.342;8.802;2022-07-29T07:32:04;22.10;99.90
49465;DHT22;35358;49.342;8.802;2022-07-29T07:34:32;22.20;99.90
49465;DHT22;35358;49.342;8.802;2022-07-29T07:36:57;22.10;99.90
49465;DHT22;35358;49.342;8.802;2022-07-29T07:39:23;22.30;99.90
49465;DHT22;35358;49.342;8.802;2022-07-29T07:41:51;22.40;99.90
49465;DHT22;35358;49.342;8.802;2022-07-29T07:44:19;22.40;99.90
49465;DHT22;35358;49.342;8.802;2022-07-29T07:46:47;22.50;99.90
49465;DHT22;35358;49.342;8.802;2022-07-29T07:49:13;22.60;99.90
49465;DHT22;35358;49.342;8.802;2022-07-29T07:51:38;22.70;99.90
49465;DHT22;35358;49.342;8.802;2022-07-29T07:54:04;22.80;99.90
49465;DHT22;35358;49.342;8.802;2022-07-29T07:56:30;22.90;99.90
49465;DHT22;35358;49.342;8.802;2022-07-29T07:58:58;22.90;99.90
49465;DHT22;35358;49.342;8.802;2022-07-29T08:01:26;23.10;99.90
49465;DHT22;35358;49.342;8.802;2022-07-29T08:03:51;23.00;99.90
49465;DHT22;35358;49.342;8.802;2022-07-29T08:06:17;23.10;99.90
49465;DHT22;35358;49.342;8.802;2022-07-29T08:08:43;23.00;99.90
49465;DHT22;35358;49.342;8.802;2022-07-29T08:11:11;23.00;99.90
49465;DHT22;35358;49.342;8.802;2022-07-29T08:13:41;23.00;99.90
49465;DHT22;35358;49.342;8.802;2022-07-29T08:16:07;23.00;99.90
49465;DHT22;35358;49.342;8.802;2022-07-29T08:18:38;23.20;99.90
49465;DHT22;35358;49.342;8.802;2022-07-29T08:21:07;23.30;99.90
49465;DHT22;35358;49.342;8.802;2022-07-29T08:23:32;23.40;99.90
49465;DHT22;35358;49.342;8.802;2022-07-29T08:26:12;23.30;99.90
49465;DHT22;35358;49.342;8.802;2022-07-29T08:28:41;23.40;99.90
49465;DHT22;35358;49.342;8.802;2022-07-29T08:31:13;23.60;99.90
49465;DHT22;35358;49.342;8.802;2022-07-29T08:33:42;23.60;99.90
49465;DHT22;35358;49.342;8.802;2022-07-29T08:36:08;23.70;99.90
49465;DHT22;35358;49.342;8.802;2022-07-29T08:38:36;23.70;99.90
49465;DHT22;35358;49.342;8.802;2022-07-29T08:41:01;23.70;99.90
49465;DHT22;35358;49.342;8.802;2022-07-29T08:43:30;23.90;99.90
49465;DHT22;35358;49.342;8.802;2022-07-29T08:45:56;23.90;99.90
49465;DHT22;35358;49.342;8.802;2022-07-29T08:48:24;23.70;99.90
49465;DHT22;35358;49.342;8.802;2022-07-29T08:50:55;23.70;99.90
49465;DHT22;35358;49.342;8.802;2022-07-29T08:53:22;23.70;99.90
49465;DHT22;35358;49.342;8.802;2022-07-29T08:55:49;23.80;99.90
49465;DHT22;35358;49.342;8.802;2022-07-29T08:58:16;23.80;99.90
49465;DHT22;35358;49.342;8.802;2022-07-29T09:00:45;24.10;99.90
49465;DHT22;35358;49.342;8.802;2022-07-29T09:03:15;24.10;99.90
49465;DHT22;35358;49.342;8.802;2022-07-29T09:05:45;24.10;99.90
49465;DHT22;35358;49.342;8.802;2022-07-29T09:08:12;24.00;99.90
49465;DHT22;35358;49.342;8.802;2022-07-29T09:10:40;24.00;99.90
49465;DHT22;35358;49.342;8.802;2022-07-29T09:13:06;24.30;99.90
49465;DHT22;35358;49.342;8.802;2022-07-29T09:15:34;24.50;99.90
49465;DHT22;35358;49.342;8.802;2022-07-29T09:18:00;24.50;99.90
49465;DHT22;35358;49.342;8.802;2022-07-29T09:20:26;24.50;99.90
49465;DHT22;35358;49.342;8.802;2022-07-29T09:23:12;24.50;99.90
49465;DHT22;35358;49.342;8.802;2022-07-29T09:25:41;24.40;99.90
49465;DHT22;35358;49.342;8.802;2022-07-29T09:28:12;24.50;99.90
49465;DHT22;35358;49.342;8.802;2022-07-29T09:31:04;24.60;99.90
49465;DHT22;35358;49.342;8.802;2022-07-29T09:33:36;24.50;99.90
49465;DHT22;35358;49.342;8.802;2022-07-29T09:38:35;24.30;99.90
49465;DHT22;35358;49.342;8.802;2022-07-29T09:41:02;24.40;99.90
49465;DHT22;35358;49.342;8.802;2022-07-29T09:43:28;24.30;99.90
49465;DHT22;35358;49.342;8.802;2022-07-29T09:45:54;24.40;99.90
49465;DHT22;35358;49.342;8.802;2022-07-29T09:48:24;24.60;99.90
49465;DHT22;35358;49.342;8.802;2022-07-29T09:50:51;25.00;99.90
49465;DHT22;35358;49.342;8.802;2022-07-29T09:53:31;25.00;99.90
49465;DHT22;35358;49.342;8.802;2022-07-29T09:56:03;25.00;99.90
49465;DHT22;35358;49.342;8.802;2022-07-29T09:58:28;25.30;99.90
49465;DHT22;35358;49.342;8.802;2022-07-29T10:00:58;25.40;99.90
49465;DHT22;35358;49.342;8.802;2022-07-29T10:03:24;25.30;99.90
49465;DHT22;35358;49.342;8.802;2022-07-29T10:06:10;25.40;99.90
49465;DHT22;35358;49.342;8.802;2022-07-29T10:08:39;25.40;99.90
49465;DHT22;35358;49.342;8.802;2022-07-29T10:13:36;25.30;99.90
49465;DHT22;35358;49.342;8.802;2022-07-29T10:16:02;25.40;99.90
49465;DHT22;35358;49.342;8.802;2022-07-29T10:18:28;25.60;99.90
49465;DHT22;35358;49.342;8.802;2022-07-29T10:20:54;25.70;99.90
49465;DHT22;35358;49.342;8.802;2022-07-29T10:23:23;25.50;99.90
49465;DHT22;35358;49.342;8.802;2022-07-29T10:25:49;25.70;99.90
49465;DHT22;35358;49.342;8.802;2022-07-29T10:28:15;25.80;99.90
49465;DHT22;35358;49.342;8.802;2022-07-29T10:30:41;25.90;99.90
49465;DHT22;35358;49.342;8.802;2022-07-29T10:36:32;25.90;99.90
49465;DHT22;35358;49.342;8.802;2022-07-29T10:42:11;25.90;99.90
49465;DHT22;35358;49.342;8.802;2022-07-29T10:44:40;25.90;99.90
49465;DHT22;35358;49.342;8.802;2022-07-29T10:47:10;26.00;99.90
49465;DHT22;35358;49.342;8.802;2022-07-29T10:49:57;26.10;99.90
49465;DHT22;35358;49.342;8.802;2022-07-29T10:52:23;26.10;99.90
49465;DHT22;35358;49.342;8.802;2022-07-29T10:54:55;26.30;99.90
49465;DHT22;35358;49.342;8.802;2022-07-29T10:57:30;26.20;99.90
49465;DHT22;35358;49.342;8.802;2022-07-29T11:05:18;26.60;99.90
49465;DHT22;35358;49.342;8.802;2022-07-29T11:11:30;26.60;99.90
49465;DHT22;35358;49.342;8.802;2022-07-29T11:13:51;26.40;99.90
49465;DHT22;35358;49.342;8.802;2022-07-29T11:16:19;26.60;99.90
49465;DHT22;35358;49.342;8.802;2022-07-29T11:21:42;26.80;99.90
49465;DHT22;35358;49.342;8.802;2022-07-29T11:24:13;26.70;99.90
49465;DHT22;35358;49.342;8.802;2022-07-29T11:26:39;26.70;99.90
49465;DHT22;35358;49.342;8.802;2022-07-29T11:29:20;26.90;99.90
49465;DHT22;35358;49.342;8.802;2022-07-29T11:31:51;27.00;99.90
49465;DHT22;35358;49.342;8.802;2022-07-29T11:34:21;27.40;99.90
49465;DHT22;35358;49.342;8.802;2022-07-29T11:39:39;27.20;99.90
49465;DHT22;35358;49.342;8.802;2022-07-29T11:44:58;27.50;99.90
49465;DHT22;35358;49.342;8.802;2022-07-29T11:47:26;27.50;99.90
49465;DHT22;35358;49.342;8.802;2022-07-29T11:49:54;27.70;99.90
49465;DHT22;35358;49.342;8.802;2022-07-29T11:52:21;27.70;99.90
49465;DHT22;35358;49.342;8.802;2022-07-29T11:54:49;28.00;99.90
49465;DHT22;35358;49.342;8.802;2022-07-29T11:57:16;28.10;99.90
49465;DHT22;35358;49.342;8.802;2022-07-29T11:59:45;28.30;99.90
49465;DHT22;35358;49.342;8.802;2022-07-29T12:02:13;27.70;99.90
49465;DHT22;35358;49.342;8.802;2022-07-29T12:04:53;27.90;99.90
49465;DHT22;35358;49.342;8.802;2022-07-29T12:07:28;28.10;99.90
49465;DHT22;35358;49.342;8.802;2022-07-29T12:09:56;28.70;99.90
49465;DHT22;35358;49.342;8.802;2022-07-29T12:12:22;28.80;99.90
49465;DHT22;35358;49.342;8.802;2022-07-29T12:14:51;28.90;99.90
49465;DHT22;35358;49.342;8.802;2022-07-29T12:17:33;28.80;99.90
49465;DHT22;35358;49.342;8.802;2022-07-29T12:20:00;28.80;99.90
49465;DHT22;35358;49.342;8.802;2022-07-29T12:22:33;28.90;99.90
49465;DHT22;35358;49.342;8.802;2022-07-29T12:25:04;28.90;99.90
49465;DHT22;35358;49.342;8.802;2022-07-29T12:27:35;29.20;99.90
49465;DHT22;35358;49.342;8.802;2022-07-29T12:30:05;29.20;99.90
49465;DHT22;35358;49.342;8.802;2022-07-29T12:32:38;29.20;99.90
49465;DHT22;35358;49.342;8.802;2022-07-29T12:35:25;28.90;99.90
49465;DHT22;35358;49.342;8.802;2022-07-29T12:37:51;28.80;99.90
49465;DHT22;35358;49.342;8.802;2022-07-29T12:40:18;28.80;99.90
49465;DHT22;35358;49.342;8.802;2022-07-29T12:43:12;28.60;99.90
49465;DHT22;35358;49.342;8.802;2022-07-29T12:45:44;28.40;99.90
49465;DHT22;35358;49.342;8.802;2022-07-29T12:48:13;28.10;99.90
49465;DHT22;35358;49.342;8.802;2022-07-29T12:50:57;28.00;99.90
49465;DHT22;35358;49.342;8.802;2022-07-29T12:53:24;28.10;99.90
49465;DHT22;35358;49.342;8.802;2022-07-29T12:55:52;28.40;99.90
49465;DHT22;35358;49.342;8.802;2022-07-29T12:58:38;28.80;99.90
49465;DHT22;35358;49.342;8.802;2022-07-29T13:01:08;28.70;99.90
49465;DHT22;35358;49.342;8.802;2022-07-29T13:03:56;28.40;99.90
49465;DHT22;35358;49.342;8.802;2022-07-29T13:11:41;28.00;99.90
49465;DHT22;35358;49.342;8.802;2022-07-29T13:14:08;28.10;99.90
49465;DHT22;35358;49.342;8.802;2022-07-29T13:16:35;28.00;99.90
49465;DHT22;35358;49.342;8.802;2022-07-29T13:19:08;27.70;99.90
49465;DHT22;35358;49.342;8.802;2022-07-29T13:21:38;27.60;99.90
49465;DHT22;35358;49.342;8.802;2022-07-29T13:24:05;27.60;99.90
49465;DHT22;35358;49.342;8.802;2022-07-29T13:26:31;27.50;99.90
49465;DHT22;35358;49.342;8.802;2022-07-29T13:29:02;27.50;99.90
49465;DHT22;35358;49.342;8.802;2022-07-29T13:31:27;27.40;99.90
49465;DHT22;35358;49.342;8.802;2022-07-29T13:33:55;27.40;99.90
49465;DHT22;35358;49.342;8.802;2022-07-29T13:36:24;27.30;99.90
49465;DHT22;35358;49.342;8.802;2022-07-29T13:38:52;27.20;99.90
49465;DHT22;35358;49.342;8.802;2022-07-29T13:41:17;27.10;99.90
49465;DHT22;35358;49.342;8.802;2022-07-29T13:43:43;27.20;99.90
49465;DHT22;35358;49.342;8.802;2022-07-29T13:46:09;27.20;99.90
49465;DHT22;35358;49.342;8.802;2022-07-29T13:48:37;27.20;99.90
49465;DHT22;35358;49.342;8.802;2022-07-29T13:51:05;27.20;99.90
49465;DHT22;35358;49.342;8.802;2022-07-29T13:53:30;27.20;99.90
49465;DHT22;35358;49.342;8.802;2022-07-29T13:55:58;27.30;99.90
49465;DHT22;35358;49.342;8.802;2022-07-29T13:58:25;27.30;99.90
49465;DHT22;35358;49.342;8.802;2022-07-29T14:00:51;27.20;99.90
49465;DHT22;35358;49.342;8.802;2022-07-29T14:03:17;27.30;99.90
49465;DHT22;35358;49.342;8.802;2022-07-29T14:05:45;27.40;99.90
49465;DHT22;35358;49.342;8.802;2022-07-29T14:08:13;27.60;99.90
49465;DHT22;35358;49.342;8.802;2022-07-29T14:10:39;27.60;99.90
49465;DHT22;35358;49.342;8.802;2022-07-29T14:13:05;27.50;99.90
49465;DHT22;35358;49.342;8.802;2022-07-29T14:15:30;27.40;99.90
49465;DHT22;35358;49.342;8.802;2022-07-29T14:17:56;27.40;99.90
49465;DHT22;35358;49.342;8.802;2022-07-29T14:20:22;27.50;99.90
49465;DHT22;35358;49.342;8.802;2022-07-29T14:22:47;27.60;99.90
49465;DHT22;35358;49.342;8.802;2022-07-29T14:25:15;27.60;99.90
49465;DHT22;35358;49.342;8.802;2022-07-29T14:27:46;27.60;99.90
49465;DHT22;35358;49.342;8.802;2022-07-29T14:30:14;27.60;99.90
49465;DHT22;35358;49.342;8.802;2022-07-29T14:32:40;27.70;99.90
49465;DHT22;35358;49.342;8.802;2022-07-29T14:35:07;27.70;99.90
49465;DHT22;35358;49.342;8.802;2022-07-29T14:37:33;27.70;99.90
49465;DHT22;35358;49.342;8.802;2022-07-29T14:40:03;27.80;99.90
49465;DHT22;35358;49.342;8.802;2022-07-29T14:42:32;28.10;99.90
49465;DHT22;35358;49.342;8.802;2022-07-29T14:45:00;28.20;99.90
49465;DHT22;35358;49.342;8.802;2022-07-29T14:47:25;28.20;99.90
49465;DHT22;35358;49.342;8.802;2022-07-29T14:49:53;28.10;99.90
49465;DHT22;35358;49.342;8.802;2022-07-29T14:52:19;28.00;99.90
49465;DHT22;35358;49.342;8.802;2022-07-29T14:54:44;27.90;99.90
49465;DHT22;35358;49.342;8.802;2022-07-29T14:57:11;27.80;99.90
49465;DHT22;35358;49.342;8.802;2022-07-29T14:59:36;27.90;99.90
49465;DHT22;35358;49.342;8.802;2022-07-29T15:02:02;28.00;99.90
49465;DHT22;35358;49.342;8.802;2022-07-29T15:04:31;27.90;99.90
49465;DHT22;35358;49.342;8.802;2022-07-29T15:06:57;27.80;99.90
49465;DHT22;35358;49.342;8.802;2022-07-29T15:09:23;27.70;99.90
49465;DHT22;35358;49.342;8.802;2022-07-29T15:11:49;27.80;99.90
49465;DHT22;35358;49.342;8.802;2022-07-29T15:14:15;27.80;99.90
49465;DHT22;35358;49.342;8.802;2022-07-29T15:16:44;27.80;99.90
49465;DHT22;35358;49.342;8.802;2022-07-29T15:19:13;27.90;99.90
49465;DHT22;35358;49.342;8.802;2022-07-29T15:21:39;27.80;99.90
49465;DHT22;35358;49.342;8.802;2022-07-29T15:24:04;27.90;99.90
49465;DHT22;35358;49.342;8.802;2022-07-29T15:26:32;28.20;99.90
49465;DHT22;35358;49.342;8.802;2022-07-29T15:29:00;28.20;99.90
49465;DHT22;35358;49.342;8.802;2022-07-29T15:31:26;28.10;99.90
49465;DHT22;35358;49.342;8.802;2022-07-29T15:33:52;28.20;99.90
49465;DHT22;35358;49.342;8.802;2022-07-29T15:36:19;28.20;99.90
49465;DHT22;35358;49.342;8.802;2022-07-29T15:38:47;28.10;99.90
49465;DHT22;35358;49.342;8.802;2022-07-29T15:41:16;28.00;99.90
49465;DHT22;35358;49.342;8.802;2022-07-29T15:43:50;27.80;99.90
49465;DHT22;35358;49.342;8.802;2022-07-29T15:46:18;27.80;99.90
49465;DHT22;35358;49.342;8.802;2022-07-29T15:49:06;27.70;99.90
49465;DHT22;35358;49.342;8.802;2022-07-29T15:51:32;27.60;99.90
49465;DHT22;35358;49.342;8.802;2022-07-29T15:54:00;27.60;99.90
49465;DHT22;35358;49.342;8.802;2022-07-29T15:56:26;27.50;99.90
49465;DHT22;35358;49.342;8.802;2022-07-29T15:58:52;27.40;99.90
49465;DHT22;35358;49.342;8.802;2022-07-29T16:01:17;27.50;99.90
49465;DHT22;35358;49.342;8.802;2022-07-29T16:03:46;27.60;99.90
49465;DHT22;35358;49.342;8.802;2022-07-29T16:06:11;27.80;99.90
49465;DHT22;35358;49.342;8.802;2022-07-29T16:08:40;28.10;99.90
49465;DHT22;35358;49.342;8.802;2022-07-29T16:11:06;28.60;99.90
49465;DHT22;35358;49.342;8.802;2022-07-29T16:13:33;28.70;99.90
49465;DHT22;35358;49.342;8.802;2022-07-29T16:15:59;28.70;99.90
49465;DHT22;35358;49.342;8.802;2022-07-29T16:18:27;28.80;99.90
49465;DHT22;35358;49.342;8.802;2022-07-29T16:20:52;29.00;99.90